ADDS METAR Data INFO
IDs: Format: Raw Decoded Include TAF

Data at: 1237 UTC 25 Jul 2017

KTRL 251153Z AUTO 18005KT 8SM CLR 24/23 A3008 RMK AO2 SLP177 T02440228 10256 20244 53017
KTRL 251053Z AUTO 19006KT 10SM CLR 24/23 A3006 RMK AO2 SLP170 T02440228
KTRL 250953Z AUTO 18006KT 10SM CLR 25/23 A3004 RMK AO2 SLP164 T02500233
KTRL 250853Z AUTO 19006KT 10SM CLR 25/23 A3003 RMK AO2 SLP160 T02500233 53003
KTRL 250753Z AUTO 15006KT 10SM CLR 26/23 A3002 RMK AO2 SLP158 T02560233
KTRL 250653Z AUTO 13005KT 10SM CLR 26/23 A3001 RMK AO2 SLP156 T02560228
KTRL 250553Z AUTO 14004KT 10SM CLR 26/23 A3002 RMK AO2 SLP158 T02560233 10306 20256 403220222 51014
KTRL 250453Z AUTO 13003KT 10SM CLR 26/23 A3001 RMK AO2 SLP156 T02610233
KTRL 250353Z AUTO 14003KT 10SM CLR 27/23 A2999 RMK AO2 SLP150 T02670228
KTRL 250253Z AUTO 14004KT 10SM CLR 27/23 A2998 RMK AO2 SLP144 T02720228 53006
KTRL 250153Z AUTO 15005KT 10SM CLR 28/23 A2997 RMK AO2 SLP141 T02780228
KTRL 250053Z AUTO 18007KT 10SM SCT100 29/23 A2996 RMK AO2 SLP139 T02940233
KTRL 242353Z AUTO 17006KT 10SM BKN100 31/23 A2996 RMK AO2 SLP138 T03060233 10322 20278 55001
KTRL 242253Z AUTO 16007KT 10SM FEW033 32/23 A2995 RMK AO2 SLP136 T03170228
KTRL 242153Z AUTO VRB04KT 10SM CLR 31/23 A2995 RMK AO2 SLP135 T03110228
KTRL 242053Z AUTO VRB06KT 10SM CLR 31/23 A2996 RMK AO2 SLP139 T03060228 58016
KTRL 241953Z AUTO 16005KT 10SM CLR 30/23 A2999 RMK AO2 SLP148 T03000228
KTRL 241853Z AUTO VRB04KT 10SM CLR 29/22 A2999 RMK AO2 SLP150 T02940222
KTRL 241753Z AUTO VRB03KT 10SM CLR 28/23 A3001 RMK AO2 SLP156 T02780228 10283 20222 50001
KTRL 241653Z AUTO 18003KT 10SM FEW025 SCT110 26/22 A3002 RMK AO2 SLP160 T02610222
KTRL 241553Z AUTO 05004KT 10SM BKN110 24/22 A3002 RMK AO2 SLP160 T02440222
KTRL 241453Z AUTO 36003KT 10SM BKN120 24/22 A3001 RMK AO2 SLP154 T02440217 53023
KTRL 241353Z AUTO 04003KT 10SM BKN120 24/22 A2999 RMK AO2 SLP146 T02440217
KTRL 241253Z AUTO 15005KT 10SM CLR 24/21 A2994 RMK AO2 SLP132 T02390211
KTRL 241153Z AUTO 12008KT 10SM CLR 23/21 A2994 RMK AO2 SLP130 60008 70032 T02280211 10233 20228 50003
KTRL 241101Z AUTO 07004KT 10SM FEW007 23/22 A2995 RMK AO2 T02280217
KTRL 241053Z AUTO 07003KT 10SM CLR 23/22 A2995 RMK AO2 SLP135 T02280217
KTRL 241013Z AUTO 08005KT 10SM FEW004 23/22 A2993 RMK AO2 T02330222
KTRL 240953Z AUTO 09004KT 10SM FEW080 23/22 A2993 RMK AO2 SLP127 T02330222
KTRL 240853Z AUTO 00000KT 10SM FEW009 23/22 A2993 RMK AO2 SLP127 60008 T02330222 56004
KTRL 240805Z AUTO 00000KT 10SM BKN008 BKN050 OVC110 23/22 A2992 RMK AO2 T02330217
KTRL 240753Z AUTO 00000KT 10SM SCT006 OVC110 23/22 A2993 RMK AO2 RAE15 SLP127 P0001 T02330217
KTRL 240729Z AUTO 29004KT 10SM FEW006 BKN110 23/22 A2993 RMK AO2 RAE15 P0001 T02280217
KTRL 240653Z AUTO VRB04KT 5SM RA BR FEW110 23/21 A2993 RMK AO2 SLP128 P0007 T02280211
KTRL 240553Z AUTO 05003KT 10SM -RA BKN110 22/21 A2994 RMK AO2 TSE0458 PRESFR SLP130 P0023 60024 T02220206 10339 20222 403720222 58016
KTRL 240549Z AUTO 05005KT 8SM -RA FEW070 BKN100 23/21 A2995 RMK AO2 TSE0458 PRESFR P0023
KTRL 240515Z AUTO 35006KT 4SM VCTS +RA BR FEW055 BKN075 OVC090 23/21 A2999 RMK AO2 LTG DSNT N TSE0458 P0015 T02280211
KTRL 240500Z AUTO 33003KT 2 1/2SM VCTS -RA BR BKN055 OVC070 23/21 A3000 RMK AO2 LTG DSNT SW-N TSE0458 P0002 T02280206
KTRL 240453Z AUTO 24003KT 10SM -TSRA BKN055 OVC070 23/21 A3000 RMK AO2 PK WND 04028/0354 LTG DSNT ALQDS RAE32B43 TSB30 SLP151 P0001 T02280206
KTRL 240436Z AUTO 02009KT 10SM TS OVC050 23/21 A2998 RMK AO2 PK WND 04028/0354 LTG DSNT W AND NW RAE32 TSB30 P0001 T02280206
KTRL 240422Z AUTO 05010G20KT 10SM -RA FEW046 BKN055 OVC080 22/21 A2998 RMK AO2 PK WND 04028/0354 LTG DSNT ALQDS P0001 T02220206
KTRL 240353Z AUTO 03024G32KT 10SM VCTS -RA BKN042 OVC060 24/20 A2999 RMK AO2 PK WND 03035/0331 WSHFT 0318 LTG DSNT ALQDS RAB52 SLP146 P0000 T02440200
KTRL 240350Z AUTO 03023G35KT 10SM VCTS BKN040 OVC060 25/20 A2999 RMK AO2 PK WND 03035/0331 WSHFT 0318 LTG DSNT NW-E
KTRL 240338Z AUTO 03022G35KT 10SM SCT037 BKN060 BKN070 26/19 A2998 RMK AO2 PK WND 03035/0331 WSHFT 0318 LTG DSNT ALQDS T02610194
KTRL 240253Z AUTO 16009G14KT 10SM CLR 29/19 A2990 RMK AO2 LTG DSNT NE SLP117 60000 T02940194 51029
KTRL 240153Z AUTO 13008KT 10SM CLR 31/23 A2986 RMK AO2 LTG DSNT SE AND S SLP104 T03110228
KTRL 240053Z AUTO 11005KT 10SM CLR 33/24 A2985 RMK AO2 RAB24E36 PRESRR SLP101 P0000 T03280239